Here is the Quick Look data you requested

The Data originates at the National Weather Service, and is made available here by the UAlbany Department of Atmospheric and Environmental Sciences

Surface Observations

KCVG 191252Z 19008KT 7SM -RA OVC008 19/18 A2993 RMK AO2 RAB33DZB36E48 SLP128
 P0001 T01940183=
KCVG 191352Z 20006KT 8SM BKN007 OVC013 20/19 A2993 RMK AO2 RAE05B23E39 SLP127
 P0000 T02000189=
KCVG 191452Z 23008KT 10SM BKN010 OVC032 22/19 A2993 RMK AO2 SLP126 60001
 T02170194 51003=
KCVG 191552Z 21007KT 9SM FEW011 BKN019 OVC036 22/19 A2993 RMK AO2 SLP127
 T02220189=
KCVG 191608Z 22010KT 10SM FEW012 SCT018 OVC038 23/19 A2993 RMK AO2 T02280194=
KCVG 191630Z 21010KT 10SM BKN019 BKN024 OVC037 23/19 A2993 RMK AO2 T02280189=
KCVG 191652Z 20008KT 10SM BKN018 BKN025 OVC040 23/19 A2992 RMK AO2 SLP122
 T02330189=
KCVG 191705Z 26008KT 1 1/4SM R18C/3000VP6000FT +RA BKN017 BKN027 OVC040 22/19
 A2993 RMK AO2 RAB01 P0001 T02220189=
KCVG 191712Z 6SM R18C/3000VP6000FT -RA FEW013 BKN020 OVC028 21/19 A2993 RMK AO2
 LTG DSNT S RAB01 P0018 T02110194=
KCVG 191724Z 29010KT 8SM BKN014 BKN020 OVC027 22/21 A2992 RMK AO2 LTG DSNT SE
 RAB01E20 P0018 T02220206=
KCVG 191736Z 20009G16KT 7SM -RA OVC015 22/19 A2992 RMK AO2 WSHFT 1720 LTG DSNT
 SE RAB01E20B36 P0018 T02220194=
KCVG 191740Z 22006G16KT 7SM VCTS -RA SCT013 BKN070 BKN080 22/19 A2992 RMK AO2
 WSHFT 1720 LTG DSNT SE RAB01E20B36 P0018 T02220194=
KCVG 191747Z 21008KT 10SM -RA SCT014 BKN026 23/21 A2992 RMK AO2 WSHFT 1720 LTG
 DSNT SE RAB01E20B36 P0018=
KCVG 191740Z COR 22006G16KT 7SM -RA SCT013 BKN070 BKN080 22/19 A2992 RMK AO2
 WSHFT 1720 LTG DSNT SE RAB01E20B36 P0018 T02220194=
KCVG 191752Z 20009KT 10SM SCT013 BKN020 BKN026 23/20 A2992 RMK AO2 WSHFT 1720
 LTG DSNT NE-SE RAB01E20B36E48 SLP124 P0018 60019 T02330200 10239 20194 55003=
KCVG 191852Z 24011KT 10SM FEW020 BKN026 BKN070 26/18 A2992 RMK AO2 LTG DSNT NE
 SLP122 T02560183=
KCVG 191907Z 23010KT 10SM FEW025 SCT030 BKN080 25/18 A2992 RMK AO2 T02500183=
KCVG 191952Z 24009G21KT 10SM SCT030 BKN040 BKN070 BKN150 27/18 A2991 RMK AO2
 LTG DSNT E-SW SLP119 T02670183=
KCVG 192052Z 26012G18KT 10SM -RA FEW030 SCT050 BKN110 BKN150 23/18 A2991 RMK
 AO2 LTG DSNT S RAB43 SLP121 P0000 60000 T02330183 56004=
KCVG 192152Z 25007KT 10SM FEW045 FEW150 SCT250 24/19 A2991 RMK AO2 LTG DSNT E
 RAE12 SLP120 CB DSNT SE P0000 T02390189=
KCVG 192252Z 25007KT 10SM FEW020 SCT030 BKN250 23/19 A2992 RMK AO2 SLP123
 T02330189=
KCVG 192352Z 23006KT 10SM FEW020 FEW090 SCT250 23/19 A2993 RMK AO2 SLP126 60000
 T02330189 10267 20228 53006=
KCVG 200052Z 21004KT 10SM SCT250 22/18 A2996 RMK AO2 SLP138 T02220183=
KCVG 200152Z 20006KT 9SM SCT250 21/19 A2998 RMK AO2 SLP143 T02060189=
KCVG 200252Z 20006KT 8SM SCT250 21/19 A2999 RMK AO2 SLP147 T02060189 51020=
KCVG 200352Z 20006KT 7SM SCT250 20/19 A3001 RMK AO2 SLP153 T02000189=
KCVG 200452Z 20003KT 7SM SCT250 20/18 A3000 RMK AO2 SLP150 T02000183 402670178=
KCVG 200552Z 00000KT 6SM BR BKN250 20/18 A3000 RMK AO2 SLP150 T02000183 10233
 20189 51003=
KCVG 200652Z 20003KT 7SM SCT250 19/18 A3001 RMK AO2 SLP154 T01890178=
KCVG 200752Z 22004KT 8SM BKN110 20/18 A3002 RMK AO2 SLP158 T02000178=
KCVG 200852Z 21004KT 6SM BR BKN110 19/18 A3003 RMK AO2 SLP162 T01890178 51011=
KCVG 200952Z 20005KT 5SM BR BKN110 18/17 A3004 RMK AO2 SLP163 T01830172=
KCVG 201052Z 18003KT 10SM SCT110 BKN150 BKN200 18/17 A3005 RMK AO2 SLP169
 T01780172=
KCVG 201152Z 22004KT 10SM FEW150 BKN250 20/18 A3008 RMK AO2 SLP176 70019
 T02000183 10200 20178 53014=
KCVG 201252Z 23005KT 10SM FEW150 BKN250 22/19 A3008 RMK AO2 SLP176 T02220189=